Terminal Aerodrome Forecast
Issued by NWS

Home | Current Version | Previous Version | Text Only | Print | Product List | Glossary On
Versions: 1 2 3 4 5 6 7 8 9 10 11 12 13 14 15 16 17 18 19 20 21
000
FTUS44 KBMX 160100 AAB
TAFANB
TAF AMD
KANB 160124Z 1601/1624 00000KT P6SM VCSH BKN006 BKN100
     FM160800 00000KT 4SM BR OVC006
      TEMPO 1610/1613 2SM BR OVC005
     FM161500 01004KT P6SM SCT015 BKN050=

USA.gov is the U.S. government's official web portal to all federal, state and local government web resources and services.